ブエノスアイレス/エセイサ の空港の天気 - METARとTAF

エセイサ国際空港 ( SAEZ / EZE ) - アルゼンチン ブエノスアイレス州、Ezeiza
飛行場実況気象(Metar)
観測時間07/18 22:35 ART (07/19 01:35 UTC)
風向・風速南東 1m/s
視程200m
天気現象
全天を覆う雲 雲底高度 60m
気温13℃
湿度100%
気圧1010hPa
METARSAEZ 190135Z 14001KT 0200 R11/0275 FG OVC002 13/13 Q1010 NOSIG
過去の天気等 Google飛行場航空写真 Wunderground天気予報

過去48時間のMETAR

飛行場予報(TAF)
発表時間: 7/18 20:00 ART (7/18 23:00 UTC)
予報対象時間: 18日21時 ART ~ 19日21時 ART
風向・風速不定 2m/s
視程3000m
天気現象もや 霧雨
全天を覆う雲 雲底高度 240m
全天を覆う雲 雲底高度 3050m
19日0時 ART ~ 19日9時 ART に一時的に
視程900m
天気現象霧 霧雨
全天を覆う雲 雲底高度 150m
全天を覆う雲 雲底高度 2130m
19日9時 ART ~ 19日11時 ART に徐々に
風向・風速西南西 8m/s
視程2000m
天気現象強い雨
全天を覆う雲 雲底高度 90m
全天を覆う雲 雲底高度 2130m
少しの塔状積雲 雲底高度 1370m
TAF SAEZ 182300Z 1900/1924 VRB03KT 3000 BR DZ OVC008 OVC100 TX14/1918Z TN11/1910Z
TEMPO 1903/1912 0900 FG DZ OVC005 OVC070
BECMG 1912/1914 24015KT 2000 +RA OVC003 OVC070 FEW045TCU